createdAt,value
2018-09-28T00:01:23.006Z,17.53
2018-09-28T00:03:52.908Z,20.60
2018-09-28T00:06:23.499Z,20.03
2018-09-28T00:08:54.090Z,18.50
2018-09-28T00:11:24.722Z,19.77
2018-09-28T00:13:54.700Z,19.87
2018-09-28T00:16:26.089Z,20.20
2018-09-28T00:18:56.109Z,20.97
2018-09-28T00:21:26.141Z,21.83
2018-09-28T00:23:56.164Z,23.83
2018-09-28T00:26:26.689Z,23.47
2018-09-28T00:28:56.635Z,21.53
2018-09-28T00:31:27.990Z,20.43
2018-09-28T00:33:58.268Z,22.63
2018-09-28T00:36:28.124Z,21.60
2018-09-28T00:38:58.165Z,22.77
2018-09-28T00:41:28.182Z,23.67
2018-09-28T00:43:58.935Z,21.67
2018-09-28T00:46:29.207Z,23.27
2018-09-28T00:48:59.125Z,24.40
2018-09-28T00:51:29.611Z,24.37
2018-09-28T00:53:59.681Z,23.83
2018-09-28T00:56:31.234Z,23.33
2018-09-28T00:59:01.430Z,21.60
2018-09-28T01:01:31.657Z,22.37
2018-09-28T01:04:01.505Z,21.00
2018-09-28T01:06:32.092Z,23.20
2018-09-28T01:09:01.970Z,24.03
2018-09-28T01:11:32.047Z,21.87
2018-09-28T01:14:02.102Z,21.57
2018-09-28T01:16:32.711Z,21.70
2018-09-28T01:19:02.804Z,22.23
2018-09-28T01:21:32.995Z,23.67
2018-09-28T01:24:03.950Z,23.03
2018-09-28T01:26:34.025Z,24.07
2018-09-28T01:29:04.262Z,24.07
2018-09-28T01:31:34.243Z,29.23
2018-09-28T01:34:05.657Z,30.13
2018-09-28T01:36:35.895Z,28.20
2018-09-28T01:39:08.889Z,27.47
2018-09-28T01:41:39.023Z,30.83
2018-09-28T01:44:08.981Z,28.77
2018-09-28T01:46:39.066Z,30.83
2018-09-28T01:49:10.080Z,30.73
2018-09-28T01:51:41.359Z,30.57
2018-09-28T01:54:11.889Z,34.30
2018-09-28T01:56:41.886Z,37.83
2018-09-28T01:59:12.022Z,43.07
2018-09-28T02:01:43.066Z,42.27
2018-09-28T02:04:13.692Z,41.30
2018-09-28T02:06:43.820Z,40.57
2018-09-28T02:09:13.996Z,39.47
2018-09-28T02:11:44.077Z,41.10
2018-09-28T02:14:14.502Z,41.07
2018-09-28T02:16:45.262Z,42.90
2018-09-28T02:19:15.148Z,59.70
2018-09-28T02:21:45.781Z,55.93
2018-09-28T02:24:16.156Z,65.73
2018-09-28T02:26:46.650Z,69.53
2018-09-28T02:29:18.088Z,93.73
2018-09-28T02:31:48.777Z,85.93
2018-09-28T02:34:19.953Z,91.97
2018-09-28T02:36:49.935Z,86.50
2018-09-28T02:39:20.670Z,92.10
2018-09-28T02:41:50.977Z,79.43
2018-09-28T02:44:21.046Z,72.93
2018-09-28T02:46:51.173Z,71.87
2018-09-28T02:49:21.315Z,74.10
2018-09-28T02:51:51.318Z,62.57
2018-09-28T02:54:21.476Z,61.83
2018-09-28T02:56:51.661Z,55.50
2018-09-28T02:59:22.071Z,54.60
2018-09-28T03:01:52.182Z,53.63
2018-09-28T03:04:22.127Z,46.07
2018-09-28T03:06:52.543Z,40.47
2018-09-28T03:09:23.053Z,36.90
2018-09-28T03:11:53.501Z,32.17
2018-09-28T03:14:24.031Z,23.33
2018-09-28T03:16:54.616Z,21.70
2018-09-28T03:19:24.650Z,18.30
2018-09-28T03:21:54.679Z,16.13
2018-09-28T03:24:25.702Z,14.10
2018-09-28T03:26:55.994Z,12.70
2018-09-28T03:29:26.130Z,10.70
2018-09-28T03:31:56.316Z,10.17
2018-09-28T03:34:26.603Z,8.60
2018-09-28T03:36:56.935Z,8.47
2018-09-28T03:39:27.017Z,7.00
2018-09-28T03:41:57.005Z,7.23
2018-09-28T03:44:27.045Z,6.50
2018-09-28T03:46:57.281Z,5.67
2018-09-28T03:49:29.321Z,5.97
2018-09-28T03:51:59.336Z,6.70
2018-09-28T03:54:29.281Z,5.23
2018-09-28T03:56:59.327Z,5.07
2018-09-28T03:59:29.584Z,5.20
2018-09-28T04:02:00.672Z,5.20
2018-09-28T04:04:30.771Z,4.40
2018-09-28T04:07:01.057Z,4.60
2018-09-28T04:09:30.983Z,5.10
2018-09-28T04:12:01.366Z,4.70
2018-09-28T04:14:32.661Z,5.40
2018-09-28T04:17:02.843Z,4.50
2018-09-28T04:19:33.073Z,5.10
2018-09-28T04:22:03.764Z,5.07
2018-09-28T04:24:34.025Z,5.50
2018-09-28T04:27:04.433Z,4.93
2018-09-28T04:29:34.330Z,5.50
2018-09-28T04:32:04.367Z,4.87
2018-09-28T04:34:35.745Z,5.50
2018-09-28T04:37:06.113Z,5.27
2018-09-28T04:39:36.834Z,4.90
2018-09-28T04:42:06.938Z,5.43
2018-09-28T04:44:37.642Z,4.77
2018-09-28T04:47:07.924Z,4.33
2018-09-28T04:49:38.272Z,4.83
2018-09-28T04:52:08.832Z,4.60
2018-09-28T04:54:38.807Z,5.40
2018-09-28T04:57:08.844Z,5.10
2018-09-28T04:59:38.748Z,4.87
2018-09-28T05:02:08.790Z,5.00
2018-09-28T05:04:39.368Z,5.33
2018-09-28T05:07:09.949Z,5.47
2018-09-28T05:09:40.070Z,4.90
2018-09-28T05:12:09.984Z,4.87
2018-09-28T05:14:40.252Z,4.73
2018-09-28T05:17:10.356Z,4.70
2018-09-28T05:19:40.440Z,5.07
2018-09-28T05:22:10.574Z,5.33
2018-09-28T05:24:42.461Z,5.20
2018-09-28T05:27:12.779Z,5.70
2018-09-28T05:29:43.293Z,5.40
2018-09-28T05:32:13.361Z,5.47
2018-09-28T05:34:44.038Z,5.20
2018-09-28T05:37:15.556Z,5.10
2018-09-28T05:39:45.945Z,4.77
2018-09-28T05:42:16.014Z,5.97
2018-09-28T05:44:46.369Z,5.53
2018-09-28T05:47:16.666Z,5.33
2018-09-28T05:49:46.691Z,5.20
2018-09-28T05:52:16.954Z,5.17
2018-09-28T05:54:48.343Z,4.77
2018-09-28T05:57:19.177Z,5.00
2018-09-28T05:59:55.602Z,4.83
2018-09-28T06:02:31.059Z,4.30
2018-09-28T06:05:06.259Z,4.63
2018-09-28T06:07:36.330Z,3.80
2018-09-28T06:10:06.534Z,4.17
2018-09-28T06:12:37.169Z,4.00
2018-09-28T06:15:07.245Z,3.63
2018-09-28T06:17:37.577Z,3.03
2018-09-28T06:20:07.705Z,3.60
2018-09-28T06:22:37.984Z,3.60
2018-09-28T06:25:08.940Z,3.07
2018-09-28T06:27:39.304Z,3.10
2018-09-28T06:30:10.273Z,2.50
2018-09-28T06:32:40.196Z,2.57
2018-09-28T06:35:10.266Z,2.83
2018-09-28T06:37:40.464Z,2.80
2018-09-28T06:40:10.460Z,2.70
2018-09-28T06:42:40.856Z,2.90
2018-09-28T06:45:11.256Z,3.33
2018-09-28T06:47:41.435Z,2.93
2018-09-28T06:50:11.748Z,3.10
2018-09-28T06:52:42.218Z,3.33
2018-09-28T06:55:14.478Z,3.13
2018-09-28T06:57:44.640Z,3.30
2018-09-28T07:00:14.557Z,3.13
2018-09-28T07:02:46.108Z,2.83
2018-09-28T07:05:17.655Z,3.10
2018-09-28T07:07:48.068Z,2.43
2018-09-28T07:10:18.854Z,2.37
2018-09-28T07:12:49.914Z,2.57
2018-09-28T07:15:20.320Z,2.80
2018-09-28T07:17:51.437Z,2.57
2018-09-28T07:20:22.239Z,3.13
2018-09-28T07:22:52.758Z,2.80
2018-09-28T07:25:23.840Z,2.70
2018-09-28T07:27:53.857Z,3.80
2018-09-28T07:30:24.308Z,3.57
2018-09-28T07:32:54.233Z,4.23
2018-09-28T07:35:25.983Z,3.30
2018-09-28T07:37:56.456Z,3.20
2018-09-28T07:40:26.637Z,3.10
2018-09-28T07:42:56.912Z,3.13
2018-09-28T07:45:27.743Z,2.97
2018-09-28T07:47:58.631Z,3.17
2018-09-28T07:50:28.993Z,3.10
2018-09-28T07:52:59.121Z,2.47
2018-09-28T07:55:30.346Z,3.13
2018-09-28T07:58:01.349Z,2.90
2018-09-28T08:00:31.459Z,2.93
2018-09-28T08:03:02.169Z,2.43
2018-09-28T08:05:32.444Z,3.03
2018-09-28T08:08:03.329Z,2.50
2018-09-28T08:10:33.755Z,2.80
2018-09-28T08:13:04.303Z,2.30
2018-09-28T08:15:34.231Z,2.17
2018-09-28T08:18:04.268Z,2.23
2018-09-28T08:20:34.434Z,2.50
2018-09-28T08:23:04.874Z,2.53
2018-09-28T08:25:34.909Z,2.80
2018-09-28T08:28:06.120Z,2.50
2018-09-28T08:30:36.745Z,2.77
2018-09-28T08:33:07.526Z,2.57
2018-09-28T08:35:37.987Z,2.40
2018-09-28T08:38:08.821Z,2.53
2018-09-28T08:40:39.022Z,2.83
2018-09-28T08:43:09.446Z,2.63
2018-09-28T08:45:39.682Z,2.87
2018-09-28T08:48:10.133Z,3.23
2018-09-28T08:50:40.366Z,3.17
2018-09-28T08:53:10.485Z,2.90
2018-09-28T08:55:41.044Z,3.03
2018-09-28T08:58:11.374Z,2.80
2018-09-28T09:00:41.855Z,2.97
2018-09-28T09:03:11.934Z,3.10
2018-09-28T09:05:42.412Z,3.60
2018-09-28T09:10:37.662Z,2.77
2018-09-28T09:13:08.648Z,2.57
2018-09-28T09:15:38.870Z,2.90
2018-09-28T09:18:09.685Z,3.37
2018-09-28T09:20:40.301Z,2.73
2018-09-28T09:23:10.428Z,2.63
2018-09-28T09:25:40.665Z,3.17
2018-09-28T09:28:11.342Z,2.83
2018-09-28T09:30:42.525Z,3.03
2018-09-28T09:33:12.451Z,3.00
2018-09-28T09:35:42.740Z,3.40
2018-09-28T09:38:12.975Z,2.70
2018-09-28T09:40:43.211Z,2.73
2018-09-28T09:43:13.919Z,2.60
2018-09-28T09:45:44.096Z,2.23
2018-09-28T09:48:16.019Z,3.37
2018-09-28T09:50:46.093Z,2.30
2018-09-28T09:53:16.290Z,2.90
2018-09-28T09:55:46.524Z,2.70
2018-09-28T09:58:17.684Z,2.50
2018-09-28T10:00:52.962Z,3.13
2018-09-28T10:03:28.299Z,2.40
2018-09-28T10:05:58.703Z,3.30
2018-09-28T10:08:28.957Z,3.23
2018-09-28T10:11:00.247Z,2.80
2018-09-28T10:13:30.763Z,3.60
2018-09-28T10:16:00.883Z,2.73
2018-09-28T10:18:31.283Z,2.90
2018-09-28T10:21:02.033Z,2.60
2018-09-28T10:23:32.979Z,3.30
2018-09-28T10:26:03.039Z,2.87
2018-09-28T10:28:33.343Z,2.70
2018-09-28T10:31:03.328Z,2.90
2018-09-28T10:33:33.365Z,3.07
2018-09-28T10:36:03.503Z,3.00
2018-09-28T10:38:33.589Z,2.90
2018-09-28T10:41:04.451Z,2.97
2018-09-28T10:43:35.097Z,2.50
2018-09-28T10:46:05.347Z,2.93
2018-09-28T10:48:35.728Z,2.63
2018-09-28T10:51:06.896Z,2.50
2018-09-28T10:53:38.547Z,2.53
2018-09-28T10:56:09.035Z,2.80
2018-09-28T10:58:39.282Z,2.53
2018-09-28T11:01:09.510Z,2.73
2018-09-28T11:03:39.700Z,2.97
2018-09-28T11:06:10.032Z,2.63
2018-09-28T11:08:40.197Z,2.60
2018-09-28T11:11:10.626Z,2.70
2018-09-28T11:13:40.672Z,3.10
2018-09-28T11:16:12.051Z,2.80
2018-09-28T11:18:42.269Z,2.50
2018-09-28T11:21:12.473Z,2.20
2018-09-28T11:23:42.685Z,2.80
2018-09-28T11:26:13.099Z,2.97
2018-09-28T11:28:43.492Z,2.17
2018-09-28T11:31:13.772Z,2.80
2018-09-28T11:33:43.839Z,3.00
2018-09-28T11:36:14.807Z,2.67
2018-09-28T11:38:44.921Z,2.90
2018-09-28T11:41:14.975Z,2.47
2018-09-28T11:43:45.282Z,2.47
2018-09-28T11:46:16.117Z,2.50
2018-09-28T11:48:47.263Z,2.10
2018-09-28T11:51:18.378Z,2.70
2018-09-28T11:53:49.346Z,2.43
2018-09-28T11:56:19.941Z,2.43
2018-09-28T11:58:51.096Z,2.70
2018-09-28T12:01:21.847Z,2.23
2018-09-28T12:03:52.181Z,2.20
2018-09-28T12:06:22.411Z,2.53
2018-09-28T12:08:53.016Z,2.30
2018-09-28T12:11:23.383Z,2.50
2018-09-28T12:13:54.096Z,2.50
2018-09-28T12:16:26.519Z,2.30
2018-09-28T12:18:56.716Z,2.77
2018-09-28T12:21:27.114Z,2.20
2018-09-28T12:23:57.481Z,2.27
2018-09-28T12:26:27.803Z,2.07
2018-09-28T12:28:58.632Z,2.20
2018-09-28T12:31:29.337Z,2.57
2018-09-28T12:34:00.187Z,2.50
2018-09-28T12:36:30.625Z,2.17
2018-09-28T12:39:00.730Z,2.30
2018-09-28T12:41:30.967Z,2.03
2018-09-28T12:44:01.083Z,2.50
2018-09-28T12:46:31.210Z,2.03
2018-09-28T12:49:01.652Z,2.20
2018-09-28T12:51:31.747Z,2.20
2018-09-28T12:54:01.920Z,2.23
2018-09-28T12:56:32.996Z,2.30
2018-09-28T12:59:04.241Z,2.37
2018-09-28T13:01:34.214Z,2.13
2018-09-28T13:04:04.359Z,2.10
2018-09-28T13:06:34.439Z,3.10
2018-09-28T13:09:06.490Z,2.27
2018-09-28T13:11:36.702Z,2.03
2018-09-28T13:14:06.854Z,1.90
2018-09-28T13:16:37.422Z,1.67
2018-09-28T13:19:09.546Z,2.10
2018-09-28T13:21:40.219Z,1.77
2018-09-28T13:24:10.438Z,1.77
2018-09-28T13:26:41.836Z,1.87
2018-09-28T13:29:12.024Z,2.30
2018-09-28T13:31:42.615Z,2.07
2018-09-28T13:34:13.351Z,1.83
2018-09-28T13:36:44.380Z,1.97
2018-09-28T13:39:14.716Z,1.87
2018-09-28T13:41:45.067Z,2.10
2018-09-28T13:44:16.415Z,2.00
2018-09-28T13:46:46.613Z,1.93
2018-09-28T13:49:17.042Z,2.00
2018-09-28T13:51:48.991Z,2.00
2018-09-28T13:54:24.415Z,2.13
2018-09-28T13:56:55.414Z,2.00
2018-09-28T13:59:25.708Z,2.17
2018-09-28T14:01:55.869Z,2.03
2018-09-28T14:04:26.713Z,2.10
2018-09-28T14:06:57.841Z,1.93
2018-09-28T14:09:28.461Z,2.50
2018-09-28T14:11:58.749Z,2.00
2018-09-28T14:14:28.979Z,2.10
2018-09-28T14:16:59.452Z,1.80
2018-09-28T14:19:31.030Z,1.90
2018-09-28T14:22:01.100Z,1.90
2018-09-28T14:24:31.737Z,2.40
2018-09-28T14:27:01.953Z,2.10
2018-09-28T14:29:32.569Z,1.90
2018-09-28T14:32:03.779Z,1.87
2018-09-28T14:34:33.994Z,2.13
2018-09-28T14:37:04.645Z,1.63
2018-09-28T14:39:34.803Z,1.40
2018-09-28T14:42:05.037Z,1.60
2018-09-28T14:44:35.287Z,2.20
2018-09-28T14:47:05.420Z,1.77
2018-09-28T14:49:36.134Z,1.77
2018-09-28T14:52:06.564Z,1.57
2018-09-28T14:54:37.404Z,1.63
2018-09-28T14:57:07.589Z,1.50
2018-09-28T14:59:37.935Z,1.40
2018-09-28T15:02:09.662Z,1.87
2018-09-28T15:04:39.880Z,1.40
2018-09-28T15:07:10.733Z,1.40
2018-09-28T15:09:40.828Z,2.03
2018-09-28T15:12:11.370Z,1.60
2018-09-28T15:14:41.848Z,1.43
2018-09-28T15:17:11.788Z,1.60
2018-09-28T15:19:41.890Z,1.50
2018-09-28T15:22:12.833Z,1.37
2018-09-28T15:24:43.861Z,1.43
2018-09-28T15:27:14.000Z,1.60
2018-09-28T15:29:44.551Z,1.73
2018-09-28T15:32:14.916Z,2.00
2018-09-28T15:34:44.964Z,1.80
2018-09-28T15:37:15.730Z,1.80
2018-09-28T15:39:47.154Z,1.47
2018-09-28T15:42:17.369Z,1.87
2018-09-28T15:44:47.762Z,1.40
2018-09-28T15:47:18.184Z,1.40
2018-09-28T15:49:48.792Z,1.60
2018-09-28T15:52:19.030Z,1.40
2018-09-28T15:54:49.101Z,1.57
2018-09-28T15:57:20.056Z,1.53
2018-09-28T15:59:50.270Z,1.80
2018-09-28T16:02:20.590Z,1.73
2018-09-28T16:04:51.578Z,1.90
2018-09-28T16:07:21.808Z,2.47
2018-09-28T16:09:51.954Z,1.90
2018-09-28T16:12:22.030Z,2.00
2018-09-28T16:14:52.692Z,1.50
2018-09-28T16:17:22.923Z,1.93
2018-09-28T16:19:53.078Z,1.50
2018-09-28T16:22:23.370Z,2.03
2018-09-28T16:24:53.357Z,1.80
2018-09-28T16:27:24.129Z,1.77
2018-09-28T16:29:54.391Z,1.97
2018-09-28T16:32:24.759Z,2.13
2018-09-28T16:34:55.231Z,1.80
2018-09-28T16:37:25.901Z,1.97
2018-09-28T16:39:56.541Z,1.53
2018-09-28T16:42:26.834Z,1.90
2018-09-28T16:44:57.568Z,2.17
2018-09-28T16:47:27.807Z,1.50
2018-09-28T16:49:57.997Z,1.90
2018-09-28T16:52:28.587Z,1.80
2018-09-28T16:54:59.032Z,1.60
2018-09-28T16:57:30.937Z,1.60
2018-09-28T17:00:01.755Z,1.60
2018-09-28T17:02:32.041Z,1.60
2018-09-28T17:05:02.208Z,1.90
2018-09-28T17:07:32.263Z,2.07
2018-09-28T17:10:03.910Z,2.73
2018-09-28T17:12:34.346Z,1.77
2018-09-28T17:15:05.101Z,1.90
2018-09-28T17:17:35.181Z,1.87
2018-09-28T17:20:05.475Z,2.03
2018-09-28T17:22:35.820Z,2.03
2018-09-28T17:25:06.365Z,1.60
2018-09-28T17:27:36.408Z,1.83
2018-09-28T17:30:06.715Z,1.87
2018-09-28T17:32:36.933Z,1.77
2018-09-28T17:35:07.385Z,1.80
2018-09-28T17:37:37.471Z,1.70
2018-09-28T17:40:07.873Z,2.13
2018-09-28T17:42:38.979Z,1.93
2018-09-28T17:45:10.073Z,2.23
2018-09-28T17:47:40.242Z,1.70
2018-09-28T17:50:10.278Z,2.00
2018-09-28T17:52:40.410Z,1.67
2018-09-28T17:55:10.715Z,2.47
2018-09-28T17:57:41.160Z,2.23
2018-09-28T18:00:11.253Z,3.20
2018-09-28T18:02:41.361Z,2.30
2018-09-28T18:05:11.454Z,2.30
2018-09-28T18:07:41.642Z,2.20
2018-09-28T18:10:12.404Z,1.60
2018-09-28T18:12:43.472Z,1.63
2018-09-28T18:15:13.600Z,1.83
2018-09-28T18:17:44.426Z,2.00
2018-09-28T18:20:14.715Z,2.03
2018-09-28T18:22:45.507Z,1.83
2018-09-28T18:25:15.897Z,1.97
2018-09-28T18:27:46.527Z,1.80
2018-09-28T18:30:16.545Z,2.03
2018-09-28T18:32:47.731Z,1.67
2018-09-28T18:35:17.889Z,1.90
2018-09-28T18:37:48.171Z,2.07
2018-09-28T18:40:18.353Z,1.73
2018-09-28T18:42:48.577Z,1.40
2018-09-28T18:45:18.925Z,2.10
2018-09-28T18:47:50.513Z,1.90
2018-09-28T18:50:21.271Z,1.47
2018-09-28T18:52:51.681Z,1.70
2018-09-28T18:55:22.111Z,1.77
2018-09-28T18:57:53.101Z,1.63
2018-09-28T19:00:23.163Z,1.97
2018-09-28T19:02:53.231Z,1.63
2018-09-28T19:05:23.695Z,1.70
2018-09-28T19:07:53.859Z,1.90
2018-09-28T19:10:25.241Z,1.53
2018-09-28T19:12:55.476Z,1.70
2018-09-28T19:15:25.474Z,1.60
2018-09-28T19:17:55.539Z,1.70
2018-09-28T19:20:25.840Z,1.60
2018-09-28T19:22:56.133Z,1.70
2018-09-28T19:25:26.336Z,1.60
2018-09-28T19:27:56.420Z,1.70
2018-09-28T19:30:26.350Z,1.73
2018-09-28T19:32:56.382Z,1.70
2018-09-28T19:35:26.706Z,1.70
2018-09-28T19:37:56.714Z,2.07
2018-09-28T19:40:26.637Z,1.67
2018-09-28T19:42:56.830Z,1.63
2018-09-28T19:45:27.140Z,1.77
2018-09-28T19:47:57.928Z,1.60
2018-09-28T19:50:28.019Z,1.93
2018-09-28T19:52:58.766Z,1.90
2018-09-28T19:55:29.195Z,1.93
2018-09-28T19:57:59.409Z,2.20
2018-09-28T20:00:29.706Z,1.70
2018-09-28T20:03:00.086Z,1.77
2018-09-28T20:05:30.153Z,1.70
2018-09-28T20:08:00.520Z,2.00
2018-09-28T20:10:30.486Z,1.70
2018-09-28T20:13:01.388Z,2.20
2018-09-28T20:15:31.390Z,2.03
2018-09-28T20:18:02.666Z,2.20
2018-09-28T20:20:32.704Z,2.07
2018-09-28T20:23:03.080Z,2.30
2018-09-28T20:25:33.421Z,2.70
2018-09-28T20:28:03.594Z,2.13
2018-09-28T20:30:34.892Z,2.20
2018-09-28T20:33:05.121Z,2.00
2018-09-28T20:35:35.444Z,1.90
2018-09-28T20:38:06.546Z,1.70
2018-09-28T20:40:36.881Z,2.20
2018-09-28T20:43:08.592Z,1.73
2018-09-28T20:45:39.117Z,1.67
2018-09-28T20:48:09.375Z,1.90
2018-09-28T20:50:39.735Z,1.90
2018-09-28T20:53:09.898Z,1.80
2018-09-28T20:55:39.931Z,1.90
2018-09-28T20:58:09.996Z,1.90
2018-09-28T21:00:40.489Z,2.17
2018-09-28T21:03:10.523Z,1.83
2018-09-28T21:05:40.739Z,2.27
2018-09-28T21:08:10.833Z,1.60
2018-09-28T21:10:41.063Z,2.00
2018-09-28T21:13:11.605Z,1.97
2018-09-28T21:15:42.393Z,1.90
2018-09-28T21:18:13.264Z,1.63
2018-09-28T21:20:43.219Z,2.03
2018-09-28T21:23:14.515Z,1.90
2018-09-28T21:25:44.747Z,2.00
2018-09-28T21:28:15.434Z,1.90
2018-09-28T21:30:46.497Z,2.03
2018-09-28T21:33:16.857Z,1.90
2018-09-28T21:35:47.081Z,1.90
2018-09-28T21:38:17.569Z,1.80
2018-09-28T21:40:47.809Z,1.80
2018-09-28T21:43:18.956Z,1.73
2018-09-28T21:45:49.388Z,2.13
2018-09-28T21:48:19.551Z,2.10
2018-09-28T21:50:49.783Z,2.00
2018-09-28T21:53:20.662Z,2.23
2018-09-28T21:55:50.696Z,1.87
2018-09-28T21:58:20.701Z,1.70
2018-09-28T22:00:56.808Z,2.00
2018-09-28T22:03:27.189Z,2.60
2018-09-28T22:05:57.968Z,1.90
2018-09-28T22:08:28.106Z,2.50
2018-09-28T22:10:58.194Z,1.90
2018-09-28T22:13:28.938Z,1.90
2018-09-28T22:15:58.950Z,2.60
2018-09-28T22:18:30.680Z,1.87
2018-09-28T22:21:00.569Z,2.10
2018-09-28T22:23:30.998Z,2.17
2018-09-28T22:26:01.130Z,1.83
2018-09-28T22:28:31.276Z,1.70
2018-09-28T22:31:02.236Z,2.10
2018-09-28T22:33:33.002Z,2.03
2018-09-28T22:36:03.208Z,1.80
2018-09-28T22:38:33.433Z,1.87
2018-09-28T22:41:03.843Z,1.70
2018-09-28T22:43:34.106Z,1.73
2018-09-28T22:46:04.349Z,1.80
2018-09-28T22:48:34.355Z,1.90
2018-09-28T22:51:05.081Z,1.80
2018-09-28T22:53:35.320Z,1.70
2018-09-28T22:56:05.307Z,2.20
2018-09-28T22:58:35.339Z,1.90
2018-09-28T23:01:05.277Z,2.10
2018-09-28T23:03:35.538Z,1.80
2018-09-28T23:06:05.603Z,1.80
2018-09-28T23:08:35.739Z,1.97
2018-09-28T23:11:05.911Z,2.00
2018-09-28T23:13:36.001Z,2.20
2018-09-28T23:16:06.280Z,2.13
2018-09-28T23:18:36.305Z,2.30
2018-09-28T23:21:06.471Z,1.97
2018-09-28T23:23:37.105Z,1.60
2018-09-28T23:26:07.787Z,1.70
2018-09-28T23:28:38.785Z,1.90
2018-09-28T23:31:09.133Z,1.60
2018-09-28T23:33:39.251Z,1.60
2018-09-28T23:36:09.115Z,2.27
2018-09-28T23:38:39.310Z,2.47
2018-09-28T23:41:09.591Z,1.33
2018-09-28T23:43:39.915Z,1.83
2018-09-28T23:46:11.136Z,1.53
2018-09-28T23:48:41.245Z,2.03
2018-09-28T23:51:11.963Z,2.13
2018-09-28T23:53:42.726Z,1.73
2018-09-28T23:56:12.670Z,1.70
2018-09-28T23:58:43.495Z,2.53
